Prairie Rose, North Dakota
Current Conditions -  °F | °C
As of 3:53 AM on Wednesday 22 Oct 2014 (Local Time) from KFAR Reporting Station
Few Clouds Few Clouds  
Wind Chill: 13°   Ceiling: Unl
Heat Index: 13°   Visibility: 10mi
Dew Point:   Wind: 25mph
Humidity: 59%   Direction: 150°SSE
Pressure: 29.87"   Gusts: 35mph
Location:  46.8079°N, 96.8643°W
Report Text: KFAR 220853Z 15022G30KT 10SM FEW080 13/05 A2987 RMK AO2 PK WND 15033/0824 SLP116 T01280050 58008
Loading
Personal Weather Stations






























Interactive Weather Map
Tropical Storm Tracking
New forecast layout! Learn more

10-Day Weather Forecast

Advertisements
Track Severe Weather on mobile